Terminal Aerodrome Forecast
Issued by NWS Charleston, WV

Current Version | Previous Version | Text Only | Print | Product List | Glossary Off
Versions: 1 2 3 4 5 6 7 8 9 10 11 12 13 14 15 16 17 18 19 20 21 22 23

000
FTUS41 KRLX 222322
TAFPKB
TAF
KPKB 222322Z 2300/2324 34004KT P6SM VCSH BKN050
     FM230300 35004KT P6SM FEW150
     FM231000 00000KT 6SM BR SKC
     FM231300 VRB04KT P6SM SCT150=

USA.gov is the U.S. government's official web portal to all federal, state and local government web resources and services.